Ursine, Nevada
Current Conditions -  °F | °C
As of 5:53 AM on Saturday 22 Nov 2014 (Local Time) from KELY Reporting Station
Clear Clear  
Wind Chill: 26°   Ceiling: Unl
Heat Index: 34°   Visibility: 10mi
Dew Point: 21°   Wind: 10mph
Humidity: 59%   Direction: 180°S
Pressure: 30"   Gusts: NA
Location:  38.2635°N, 114.484°W
Report Text: KELY 221353Z AUTO 18009KT 10SM CLR 01/M06 A3000 RMK AO2 SLP152 T00111061
Loading
Personal Weather Stations






























Interactive Weather Map New forecast layout! Learn more

10-Day Weather Forecast

Advertisements
Track Severe Weather on mobile